sensor_id;sensor_type;location;lat;lon;timestamp;temperature;humidity
26703;DHT22;14316;51.074;3.704;2023-01-25T00:01:50;4.60;99.90
26703;DHT22;14316;51.074;3.704;2023-01-25T00:04:20;4.50;99.90
26703;DHT22;14316;51.074;3.704;2023-01-25T00:06:46;4.20;99.90
26703;DHT22;14316;51.074;3.704;2023-01-25T00:09:13;3.90;99.90
26703;DHT22;14316;51.074;3.704;2023-01-25T00:11:39;3.50;99.90
26703;DHT22;14316;51.074;3.704;2023-01-25T00:14:05;3.30;99.90
26703;DHT22;14316;51.074;3.704;2023-01-25T00:16:31;3.10;99.90
26703;DHT22;14316;51.074;3.704;2023-01-25T00:18:57;3.00;99.90
26703;DHT22;14316;51.074;3.704;2023-01-25T00:21:24;3.20;99.90
26703;DHT22;14316;51.074;3.704;2023-01-25T00:23:51;3.00;99.90
26703;DHT22;14316;51.074;3.704;2023-01-25T00:26:17;2.90;99.90
26703;DHT22;14316;51.074;3.704;2023-01-25T00:28:51;2.70;99.90
26703;DHT22;14316;51.074;3.704;2023-01-25T00:31:44;2.60;99.90
26703;DHT22;14316;51.074;3.704;2023-01-25T00:36:49;3.00;99.90
26703;DHT22;14316;51.074;3.704;2023-01-25T00:39:16;3.30;99.90
26703;DHT22;14316;51.074;3.704;2023-01-25T00:41:42;3.60;99.90
26703;DHT22;14316;51.074;3.704;2023-01-25T00:44:09;4.00;99.90
26703;DHT22;14316;51.074;3.704;2023-01-25T00:46:35;4.00;99.90
26703;DHT22;14316;51.074;3.704;2023-01-25T00:49:01;3.80;99.90
26703;DHT22;14316;51.074;3.704;2023-01-25T00:51:26;4.10;99.90
26703;DHT22;14316;51.074;3.704;2023-01-25T00:53:52;4.30;99.90
26703;DHT22;14316;51.074;3.704;2023-01-25T00:56:18;4.50;99.90
26703;DHT22;14316;51.074;3.704;2023-01-25T00:58:44;4.60;99.90
26703;DHT22;14316;51.074;3.704;2023-01-25T01:01:10;4.60;99.90
26703;DHT22;14316;51.074;3.704;2023-01-25T01:03:37;4.60;99.90
26703;DHT22;14316;51.074;3.704;2023-01-25T01:06:10;4.60;99.90
26703;DHT22;14316;51.074;3.704;2023-01-25T01:08:41;4.60;99.90
26703;DHT22;14316;51.074;3.704;2023-01-25T01:11:10;4.50;99.90
26703;DHT22;14316;51.074;3.704;2023-01-25T01:13:38;3.40;99.90
26703;DHT22;14316;51.074;3.704;2023-01-25T01:16:07;3.10;99.90
26703;DHT22;14316;51.074;3.704;2023-01-25T01:18:38;3.20;99.90
26703;DHT22;14316;51.074;3.704;2023-01-25T01:21:05;3.60;99.90
26703;DHT22;14316;51.074;3.704;2023-01-25T01:23:31;3.70;99.90
26703;DHT22;14316;51.074;3.704;2023-01-25T01:26:04;4.00;99.90
26703;DHT22;14316;51.074;3.704;2023-01-25T01:28:32;4.10;99.90
26703;DHT22;14316;51.074;3.704;2023-01-25T01:30:59;3.60;99.90
26703;DHT22;14316;51.074;3.704;2023-01-25T01:33:26;3.40;99.90
26703;DHT22;14316;51.074;3.704;2023-01-25T01:35:51;3.20;99.90
26703;DHT22;14316;51.074;3.704;2023-01-25T01:38:17;3.10;99.90
26703;DHT22;14316;51.074;3.704;2023-01-25T01:40:47;2.90;99.90
26703;DHT22;14316;51.074;3.704;2023-01-25T01:43:17;3.00;99.90
26703;DHT22;14316;51.074;3.704;2023-01-25T01:45:47;2.80;99.90
26703;DHT22;14316;51.074;3.704;2023-01-25T01:51:40;3.30;99.90
26703;DHT22;14316;51.074;3.704;2023-01-25T01:54:12;3.70;99.90
26703;DHT22;14316;51.074;3.704;2023-01-25T01:56:49;3.90;99.90
26703;DHT22;14316;51.074;3.704;2023-01-25T01:59:17;3.90;99.90
26703;DHT22;14316;51.074;3.704;2023-01-25T02:01:44;4.00;99.90
26703;DHT22;14316;51.074;3.704;2023-01-25T02:04:11;4.10;99.90
26703;DHT22;14316;51.074;3.704;2023-01-25T02:09:24;4.30;99.90
26703;DHT22;14316;51.074;3.704;2023-01-25T02:11:51;4.50;99.90
26703;DHT22;14316;51.074;3.704;2023-01-25T02:14:18;4.30;99.90
26703;DHT22;14316;51.074;3.704;2023-01-25T02:16:44;4.30;99.90
26703;DHT22;14316;51.074;3.704;2023-01-25T02:19:59;4.50;99.90
26703;DHT22;14316;51.074;3.704;2023-01-25T02:22:09;4.60;99.90
26703;DHT22;14316;51.074;3.704;2023-01-25T02:24:42;4.70;99.90
26703;DHT22;14316;51.074;3.704;2023-01-25T02:27:11;4.70;99.90
26703;DHT22;14316;51.074;3.704;2023-01-25T02:29:37;4.70;99.90
26703;DHT22;14316;51.074;3.704;2023-01-25T02:32:05;4.90;99.90
26703;DHT22;14316;51.074;3.704;2023-01-25T02:34:31;4.90;99.90
26703;DHT22;14316;51.074;3.704;2023-01-25T02:36:57;5.10;99.90
26703;DHT22;14316;51.074;3.704;2023-01-25T02:39:24;5.10;99.90
26703;DHT22;14316;51.074;3.704;2023-01-25T02:41:52;5.00;99.90
26703;DHT22;14316;51.074;3.704;2023-01-25T02:44:25;4.90;99.90
26703;DHT22;14316;51.074;3.704;2023-01-25T02:46:52;5.00;99.90
26703;DHT22;14316;51.074;3.704;2023-01-25T02:49:17;4.70;99.90
26703;DHT22;14316;51.074;3.704;2023-01-25T02:51:46;4.30;99.90
26703;DHT22;14316;51.074;3.704;2023-01-25T02:54:14;4.50;99.90
26703;DHT22;14316;51.074;3.704;2023-01-25T02:56:40;4.60;99.90
26703;DHT22;14316;51.074;3.704;2023-01-25T02:59:07;4.60;99.90
26703;DHT22;14316;51.074;3.704;2023-01-25T03:01:38;4.60;99.90
26703;DHT22;14316;51.074;3.704;2023-01-25T03:04:04;4.70;99.90
26703;DHT22;14316;51.074;3.704;2023-01-25T03:06:31;4.70;99.90
26703;DHT22;14316;51.074;3.704;2023-01-25T03:08:57;5.00;99.90
26703;DHT22;14316;51.074;3.704;2023-01-25T03:11:23;4.80;99.90
26703;DHT22;14316;51.074;3.704;2023-01-25T03:13:49;4.60;99.90
26703;DHT22;14316;51.074;3.704;2023-01-25T03:16:15;4.50;99.90
26703;DHT22;14316;51.074;3.704;2023-01-25T03:18:41;4.60;99.90
26703;DHT22;14316;51.074;3.704;2023-01-25T03:23:37;3.90;99.90
26703;DHT22;14316;51.074;3.704;2023-01-25T03:26:14;4.10;99.90
26703;DHT22;14316;51.074;3.704;2023-01-25T03:28:41;4.20;99.90
26703;DHT22;14316;51.074;3.704;2023-01-25T03:31:09;4.30;99.90
26703;DHT22;14316;51.074;3.704;2023-01-25T03:33:35;4.40;99.90
26703;DHT22;14316;51.074;3.704;2023-01-25T03:36:01;4.20;99.90
26703;DHT22;14316;51.074;3.704;2023-01-25T03:38:27;4.20;99.90
26703;DHT22;14316;51.074;3.704;2023-01-25T03:40:53;4.30;99.90
26703;DHT22;14316;51.074;3.704;2023-01-25T03:43:20;4.50;99.90
26703;DHT22;14316;51.074;3.704;2023-01-25T03:45:53;4.60;99.90
26703;DHT22;14316;51.074;3.704;2023-01-25T03:48:21;4.50;99.90
26703;DHT22;14316;51.074;3.704;2023-01-25T03:50:55;4.30;99.90
26703;DHT22;14316;51.074;3.704;2023-01-25T03:53:23;4.40;99.90
26703;DHT22;14316;51.074;3.704;2023-01-25T03:56:07;4.40;99.90
26703;DHT22;14316;51.074;3.704;2023-01-25T03:58:33;4.50;99.90
26703;DHT22;14316;51.074;3.704;2023-01-25T04:01:00;4.60;99.90
26703;DHT22;14316;51.074;3.704;2023-01-25T04:03:27;4.60;99.90
26703;DHT22;14316;51.074;3.704;2023-01-25T04:05:54;4.60;99.90
26703;DHT22;14316;51.074;3.704;2023-01-25T04:08:21;4.60;99.90
26703;DHT22;14316;51.074;3.704;2023-01-25T04:10:52;4.60;99.90
26703;DHT22;14316;51.074;3.704;2023-01-25T04:13:19;4.60;99.90
26703;DHT22;14316;51.074;3.704;2023-01-25T04:15:45;4.60;99.90
26703;DHT22;14316;51.074;3.704;2023-01-25T04:18:11;4.60;99.90
26703;DHT22;14316;51.074;3.704;2023-01-25T04:20:37;4.70;99.90
26703;DHT22;14316;51.074;3.704;2023-01-25T04:23:03;4.70;99.90
26703;DHT22;14316;51.074;3.704;2023-01-25T04:25:28;4.70;99.90
26703;DHT22;14316;51.074;3.704;2023-01-25T04:27:54;4.80;99.90
26703;DHT22;14316;51.074;3.704;2023-01-25T04:30:20;4.60;99.90
26703;DHT22;14316;51.074;3.704;2023-01-25T04:32:46;4.70;99.90
26703;DHT22;14316;51.074;3.704;2023-01-25T04:35:12;4.90;99.90
26703;DHT22;14316;51.074;3.704;2023-01-25T04:37:38;4.70;99.90
26703;DHT22;14316;51.074;3.704;2023-01-25T04:40:04;4.80;99.90
26703;DHT22;14316;51.074;3.704;2023-01-25T04:42:30;4.80;99.90
26703;DHT22;14316;51.074;3.704;2023-01-25T04:44:55;4.90;99.90
26703;DHT22;14316;51.074;3.704;2023-01-25T04:47:22;5.10;99.90
26703;DHT22;14316;51.074;3.704;2023-01-25T04:49:47;4.90;99.90
26703;DHT22;14316;51.074;3.704;2023-01-25T04:52:13;4.80;99.90
26703;DHT22;14316;51.074;3.704;2023-01-25T04:54:39;4.90;99.90
26703;DHT22;14316;51.074;3.704;2023-01-25T04:57:04;5.00;99.90
26703;DHT22;14316;51.074;3.704;2023-01-25T04:59:30;4.90;99.90
26703;DHT22;14316;51.074;3.704;2023-01-25T05:01:56;4.80;99.90
26703;DHT22;14316;51.074;3.704;2023-01-25T05:04:21;4.80;99.90
26703;DHT22;14316;51.074;3.704;2023-01-25T05:06:47;4.70;99.90
26703;DHT22;14316;51.074;3.704;2023-01-25T05:09:13;4.70;99.90
26703;DHT22;14316;51.074;3.704;2023-01-25T05:11:39;4.60;99.90
26703;DHT22;14316;51.074;3.704;2023-01-25T05:14:05;4.70;99.90
26703;DHT22;14316;51.074;3.704;2023-01-25T05:16:30;4.60;99.90
26703;DHT22;14316;51.074;3.704;2023-01-25T05:18:56;4.70;99.90
26703;DHT22;14316;51.074;3.704;2023-01-25T05:21:22;4.50;99.90
26703;DHT22;14316;51.074;3.704;2023-01-25T05:24:06;4.40;99.90
26703;DHT22;14316;51.074;3.704;2023-01-25T05:26:32;4.30;99.90
26703;DHT22;14316;51.074;3.704;2023-01-25T05:29:16;4.40;99.90
26703;DHT22;14316;51.074;3.704;2023-01-25T05:31:42;4.20;99.90
26703;DHT22;14316;51.074;3.704;2023-01-25T05:34:08;4.10;99.90
26703;DHT22;14316;51.074;3.704;2023-01-25T05:36:34;3.40;99.90
26703;DHT22;14316;51.074;3.704;2023-01-25T05:39:00;2.90;99.90
26703;DHT22;14316;51.074;3.704;2023-01-25T05:41:26;2.60;99.90
26703;DHT22;14316;51.074;3.704;2023-01-25T05:43:52;2.50;99.90
26703;DHT22;14316;51.074;3.704;2023-01-25T05:46:17;2.30;99.90
26703;DHT22;14316;51.074;3.704;2023-01-25T05:48:43;2.20;99.90
26703;DHT22;14316;51.074;3.704;2023-01-25T05:51:08;2.20;99.90
26703;DHT22;14316;51.074;3.704;2023-01-25T05:53:35;2.40;99.90
26703;DHT22;14316;51.074;3.704;2023-01-25T05:56:05;2.80;99.90
26703;DHT22;14316;51.074;3.704;2023-01-25T05:58:31;3.20;99.90
26703;DHT22;14316;51.074;3.704;2023-01-25T06:00:59;3.50;99.90
26703;DHT22;14316;51.074;3.704;2023-01-25T06:03:25;3.60;99.90
26703;DHT22;14316;51.074;3.704;2023-01-25T06:06:01;3.80;99.90
26703;DHT22;14316;51.074;3.704;2023-01-25T06:08:28;3.70;99.90
26703;DHT22;14316;51.074;3.704;2023-01-25T06:10:54;3.30;99.90
26703;DHT22;14316;51.074;3.704;2023-01-25T06:13:19;3.10;99.90
26703;DHT22;14316;51.074;3.704;2023-01-25T06:15:56;3.30;99.90
26703;DHT22;14316;51.074;3.704;2023-01-25T06:18:23;3.60;99.90
26703;DHT22;14316;51.074;3.704;2023-01-25T06:20:49;3.90;99.90
26703;DHT22;14316;51.074;3.704;2023-01-25T06:23:15;3.70;99.90
26703;DHT22;14316;51.074;3.704;2023-01-25T06:25:41;3.80;99.90
26703;DHT22;14316;51.074;3.704;2023-01-25T06:28:06;3.90;99.90
26703;DHT22;14316;51.074;3.704;2023-01-25T06:30:33;4.10;99.90
26703;DHT22;14316;51.074;3.704;2023-01-25T06:33:00;4.00;99.90
26703;DHT22;14316;51.074;3.704;2023-01-25T06:35:26;4.20;99.90
26703;DHT22;14316;51.074;3.704;2023-01-25T06:37:56;4.40;99.90
26703;DHT22;14316;51.074;3.704;2023-01-25T06:40:23;3.90;99.90
26703;DHT22;14316;51.074;3.704;2023-01-25T06:42:50;3.10;99.90
26703;DHT22;14316;51.074;3.704;2023-01-25T06:45:15;2.60;99.90
26703;DHT22;14316;51.074;3.704;2023-01-25T06:47:41;2.40;99.90
26703;DHT22;14316;51.074;3.704;2023-01-25T06:50:08;2.30;99.90
26703;DHT22;14316;51.074;3.704;2023-01-25T06:52:35;2.20;99.90
26703;DHT22;14316;51.074;3.704;2023-01-25T06:55:05;1.90;99.90
26703;DHT22;14316;51.074;3.704;2023-01-25T06:57:32;1.90;99.90
26703;DHT22;14316;51.074;3.704;2023-01-25T06:59:59;1.70;99.90
26703;DHT22;14316;51.074;3.704;2023-01-25T07:02:24;2.00;99.90
26703;DHT22;14316;51.074;3.704;2023-01-25T07:04:51;2.30;99.90
26703;DHT22;14316;51.074;3.704;2023-01-25T07:07:16;2.70;99.90
26703;DHT22;14316;51.074;3.704;2023-01-25T07:09:42;3.00;99.90
26703;DHT22;14316;51.074;3.704;2023-01-25T07:12:07;2.80;99.90
26703;DHT22;14316;51.074;3.704;2023-01-25T07:14:33;2.30;99.90
26703;DHT22;14316;51.074;3.704;2023-01-25T07:16:59;2.00;99.90
26703;DHT22;14316;51.074;3.704;2023-01-25T07:19:26;1.90;99.90
26703;DHT22;14316;51.074;3.704;2023-01-25T07:21:51;1.90;99.90
26703;DHT22;14316;51.074;3.704;2023-01-25T07:24:18;2.00;99.90
26703;DHT22;14316;51.074;3.704;2023-01-25T07:26:45;2.30;99.90
26703;DHT22;14316;51.074;3.704;2023-01-25T07:29:13;2.80;99.90
26703;DHT22;14316;51.074;3.704;2023-01-25T07:31:40;2.80;99.90
26703;DHT22;14316;51.074;3.704;2023-01-25T07:34:08;2.60;99.90
26703;DHT22;14316;51.074;3.704;2023-01-25T07:36:35;2.70;99.90
26703;DHT22;14316;51.074;3.704;2023-01-25T07:39:00;2.90;99.90
26703;DHT22;14316;51.074;3.704;2023-01-25T07:41:26;3.10;99.90
26703;DHT22;14316;51.074;3.704;2023-01-25T07:43:53;2.80;99.90
26703;DHT22;14316;51.074;3.704;2023-01-25T07:46:20;2.40;99.90
26703;DHT22;14316;51.074;3.704;2023-01-25T07:48:47;1.80;99.90
26703;DHT22;14316;51.074;3.704;2023-01-25T07:51:14;1.40;99.90
26703;DHT22;14316;51.074;3.704;2023-01-25T07:54:02;1.50;99.90
26703;DHT22;14316;51.074;3.704;2023-01-25T07:56:33;1.30;99.90
26703;DHT22;14316;51.074;3.704;2023-01-25T07:59:00;1.30;99.90
26703;DHT22;14316;51.074;3.704;2023-01-25T08:01:30;1.60;99.90
26703;DHT22;14316;51.074;3.704;2023-01-25T08:03:59;1.00;99.90
26703;DHT22;14316;51.074;3.704;2023-01-25T08:06:28;0.90;99.90
26703;DHT22;14316;51.074;3.704;2023-01-25T08:09:03;0.90;99.90
26703;DHT22;14316;51.074;3.704;2023-01-25T08:11:29;0.90;99.90
26703;DHT22;14316;51.074;3.704;2023-01-25T08:13:56;1.00;99.90
26703;DHT22;14316;51.074;3.704;2023-01-25T08:16:24;1.10;99.90
26703;DHT22;14316;51.074;3.704;2023-01-25T08:18:53;1.00;99.90
26703;DHT22;14316;51.074;3.704;2023-01-25T08:21:19;1.10;99.90
26703;DHT22;14316;51.074;3.704;2023-01-25T08:23:45;1.10;99.90
26703;DHT22;14316;51.074;3.704;2023-01-25T08:26:13;1.20;99.90
26703;DHT22;14316;51.074;3.704;2023-01-25T08:28:39;1.40;99.90
26703;DHT22;14316;51.074;3.704;2023-01-25T08:31:17;1.30;99.90
26703;DHT22;14316;51.074;3.704;2023-01-25T08:33:44;1.20;99.90
26703;DHT22;14316;51.074;3.704;2023-01-25T08:36:11;1.20;99.90
26703;DHT22;14316;51.074;3.704;2023-01-25T08:38:38;1.30;99.90
26703;DHT22;14316;51.074;3.704;2023-01-25T08:41:24;1.60;99.90
26703;DHT22;14316;51.074;3.704;2023-01-25T08:43:52;1.40;99.90
26703;DHT22;14316;51.074;3.704;2023-01-25T08:46:20;1.20;99.90
26703;DHT22;14316;51.074;3.704;2023-01-25T08:48:46;1.40;99.90
26703;DHT22;14316;51.074;3.704;2023-01-25T08:51:14;1.30;99.90
26703;DHT22;14316;51.074;3.704;2023-01-25T08:53:41;1.30;99.90
26703;DHT22;14316;51.074;3.704;2023-01-25T08:56:09;1.20;99.90
26703;DHT22;14316;51.074;3.704;2023-01-25T08:58:38;1.00;99.90
26703;DHT22;14316;51.074;3.704;2023-01-25T09:01:06;1.10;99.90
26703;DHT22;14316;51.074;3.704;2023-01-25T09:03:35;1.20;99.90
26703;DHT22;14316;51.074;3.704;2023-01-25T09:06:01;1.20;99.90
26703;DHT22;14316;51.074;3.704;2023-01-25T09:08:27;1.30;99.90
26703;DHT22;14316;51.074;3.704;2023-01-25T09:10:53;1.40;99.90
26703;DHT22;14316;51.074;3.704;2023-01-25T09:13:19;1.70;99.90
26703;DHT22;14316;51.074;3.704;2023-01-25T09:15:44;1.80;99.90
26703;DHT22;14316;51.074;3.704;2023-01-25T09:18:10;2.00;99.90
26703;DHT22;14316;51.074;3.704;2023-01-25T09:20:39;2.10;99.90
26703;DHT22;14316;51.074;3.704;2023-01-25T09:23:06;2.20;99.90
26703;DHT22;14316;51.074;3.704;2023-01-25T09:25:31;2.10;99.90
26703;DHT22;14316;51.074;3.704;2023-01-25T09:27:57;1.90;99.90
26703;DHT22;14316;51.074;3.704;2023-01-25T09:30:23;2.00;99.90
26703;DHT22;14316;51.074;3.704;2023-01-25T09:32:49;2.30;99.90
26703;DHT22;14316;51.074;3.704;2023-01-25T09:35:15;2.10;99.90
26703;DHT22;14316;51.074;3.704;2023-01-25T09:37:41;2.10;99.90
26703;DHT22;14316;51.074;3.704;2023-01-25T09:40:24;2.10;99.90
26703;DHT22;14316;51.074;3.704;2023-01-25T09:45:35;2.30;99.90
26703;DHT22;14316;51.074;3.704;2023-01-25T09:48:26;2.40;99.90
26703;DHT22;14316;51.074;3.704;2023-01-25T09:51:16;2.50;99.90
26703;DHT22;14316;51.074;3.704;2023-01-25T09:53:49;2.40;99.90
26703;DHT22;14316;51.074;3.704;2023-01-25T09:56:26;2.40;99.90
26703;DHT22;14316;51.074;3.704;2023-01-25T09:58:58;2.40;99.90
26703;DHT22;14316;51.074;3.704;2023-01-25T10:04:01;2.40;99.90
26703;DHT22;14316;51.074;3.704;2023-01-25T10:06:40;2.40;99.90
26703;DHT22;14316;51.074;3.704;2023-01-25T10:11:50;2.70;99.90
26703;DHT22;14316;51.074;3.704;2023-01-25T10:14:17;2.50;99.90
26703;DHT22;14316;51.074;3.704;2023-01-25T10:29:47;1.60;99.90
26703;DHT22;14316;51.074;3.704;2023-01-25T10:32:28;1.70;99.90
26703;DHT22;14316;51.074;3.704;2023-01-25T10:35:20;1.70;99.90
26703;DHT22;14316;51.074;3.704;2023-01-25T10:37:47;1.70;99.90
26703;DHT22;14316;51.074;3.704;2023-01-25T10:40:21;1.90;99.90
26703;DHT22;14316;51.074;3.704;2023-01-25T10:42:55;2.00;99.90
26703;DHT22;14316;51.074;3.704;2023-01-25T10:45:23;2.20;99.90
26703;DHT22;14316;51.074;3.704;2023-01-25T10:47:54;2.60;99.90
26703;DHT22;14316;51.074;3.704;2023-01-25T10:50:43;3.00;99.90
26703;DHT22;14316;51.074;3.704;2023-01-25T10:53:26;3.20;99.90
26703;DHT22;14316;51.074;3.704;2023-01-25T10:56:24;3.30;99.90
26703;DHT22;14316;51.074;3.704;2023-01-25T10:59:04;3.60;99.90
26703;DHT22;14316;51.074;3.704;2023-01-25T11:01:32;3.80;99.90
26703;DHT22;14316;51.074;3.704;2023-01-25T11:03:59;3.90;99.90
26703;DHT22;14316;51.074;3.704;2023-01-25T11:06:37;4.00;99.90
26703;DHT22;14316;51.074;3.704;2023-01-25T11:14:24;2.60;99.90
26703;DHT22;14316;51.074;3.704;2023-01-25T11:16:54;2.00;99.90
26703;DHT22;14316;51.074;3.704;2023-01-25T11:21:55;1.30;99.90
26703;DHT22;14316;51.074;3.704;2023-01-25T11:24:33;1.00;99.90
26703;DHT22;14316;51.074;3.704;2023-01-25T11:29:37;0.90;99.90
26703;DHT22;14316;51.074;3.704;2023-01-25T11:32:17;0.90;99.90
26703;DHT22;14316;51.074;3.704;2023-01-25T11:34:47;0.80;99.90
26703;DHT22;14316;51.074;3.704;2023-01-25T11:39:58;1.20;99.90
26703;DHT22;14316;51.074;3.704;2023-01-25T11:51:07;1.50;99.90
26703;DHT22;14316;51.074;3.704;2023-01-25T11:59:29;1.30;99.90
26703;DHT22;14316;51.074;3.704;2023-01-25T12:02:06;1.20;99.90
26703;DHT22;14316;51.074;3.704;2023-01-25T12:07:40;1.30;99.90
26703;DHT22;14316;51.074;3.704;2023-01-25T12:13:40;1.20;99.90
26703;DHT22;14316;51.074;3.704;2023-01-25T12:19:06;1.20;99.90
26703;DHT22;14316;51.074;3.704;2023-01-25T12:24:53;1.20;99.90
26703;DHT22;14316;51.074;3.704;2023-01-25T12:35:32;1.20;99.90
26703;DHT22;14316;51.074;3.704;2023-01-25T12:38:05;1.20;99.90
26703;DHT22;14316;51.074;3.704;2023-01-25T12:41:05;1.50;99.90
26703;DHT22;14316;51.074;3.704;2023-01-25T12:43:47;1.80;99.90
26703;DHT22;14316;51.074;3.704;2023-01-25T12:46:29;2.30;99.90
26703;DHT22;14316;51.074;3.704;2023-01-25T12:49:00;2.70;99.90
26703;DHT22;14316;51.074;3.704;2023-01-25T12:51:33;2.60;99.90
26703;DHT22;14316;51.074;3.704;2023-01-25T12:54:07;1.80;99.90
26703;DHT22;14316;51.074;3.704;2023-01-25T12:57:07;1.40;99.90
26703;DHT22;14316;51.074;3.704;2023-01-25T12:59:38;1.00;99.90
26703;DHT22;14316;51.074;3.704;2023-01-25T13:10:29;1.00;99.90
26703;DHT22;14316;51.074;3.704;2023-01-25T13:13:01;0.80;99.90
26703;DHT22;14316;51.074;3.704;2023-01-25T13:15:44;0.70;99.90
26703;DHT22;14316;51.074;3.704;2023-01-25T13:20:58;0.70;99.90
26703;DHT22;14316;51.074;3.704;2023-01-25T13:23:35;0.60;99.90
26703;DHT22;14316;51.074;3.704;2023-01-25T13:28:57;0.70;99.90
26703;DHT22;14316;51.074;3.704;2023-01-25T13:34:03;1.10;99.90
26703;DHT22;14316;51.074;3.704;2023-01-25T13:42:02;0.80;99.90
26703;DHT22;14316;51.074;3.704;2023-01-25T13:44:31;0.80;99.90
26703;DHT22;14316;51.074;3.704;2023-01-25T13:47:02;0.70;99.90
26703;DHT22;14316;51.074;3.704;2023-01-25T13:49:40;0.70;99.90
26703;DHT22;14316;51.074;3.704;2023-01-25T13:52:06;0.40;99.90
26703;DHT22;14316;51.074;3.704;2023-01-25T13:54:32;0.70;99.90
26703;DHT22;14316;51.074;3.704;2023-01-25T13:57:11;0.70;99.90
26703;DHT22;14316;51.074;3.704;2023-01-25T13:59:38;1.00;99.90
26703;DHT22;14316;51.074;3.704;2023-01-25T14:02:14;1.10;99.90
26703;DHT22;14316;51.074;3.704;2023-01-25T14:04:44;1.10;99.90
26703;DHT22;14316;51.074;3.704;2023-01-25T14:07:15;1.10;99.90
26703;DHT22;14316;51.074;3.704;2023-01-25T14:09:42;1.10;99.90
26703;DHT22;14316;51.074;3.704;2023-01-25T14:12:09;1.20;99.90
26703;DHT22;14316;51.074;3.704;2023-01-25T14:14:36;1.20;99.90
26703;DHT22;14316;51.074;3.704;2023-01-25T14:17:17;1.00;99.90
26703;DHT22;14316;51.074;3.704;2023-01-25T14:19:46;0.80;99.90
26703;DHT22;14316;51.074;3.704;2023-01-25T14:22:25;0.70;99.90
26703;DHT22;14316;51.074;3.704;2023-01-25T14:25:02;0.60;99.90
26703;DHT22;14316;51.074;3.704;2023-01-25T14:27:28;0.50;99.90
26703;DHT22;14316;51.074;3.704;2023-01-25T14:29:54;0.70;99.90
26703;DHT22;14316;51.074;3.704;2023-01-25T14:32:21;0.70;99.90
26703;DHT22;14316;51.074;3.704;2023-01-25T14:34:50;0.80;99.90
26703;DHT22;14316;51.074;3.704;2023-01-25T14:37:19;0.70;99.90
26703;DHT22;14316;51.074;3.704;2023-01-25T14:39:47;0.50;99.90
26703;DHT22;14316;51.074;3.704;2023-01-25T14:42:15;0.50;99.90
26703;DHT22;14316;51.074;3.704;2023-01-25T14:44:41;0.40;99.90
26703;DHT22;14316;51.074;3.704;2023-01-25T14:47:29;0.40;99.90
26703;DHT22;14316;51.074;3.704;2023-01-25T14:52:53;0.30;99.90
26703;DHT22;14316;51.074;3.704;2023-01-25T14:55:18;0.40;99.90
26703;DHT22;14316;51.074;3.704;2023-01-25T14:57:44;0.40;99.90
26703;DHT22;14316;51.074;3.704;2023-01-25T15:00:22;0.40;99.90
26703;DHT22;14316;51.074;3.704;2023-01-25T15:05:28;0.30;99.90
26703;DHT22;14316;51.074;3.704;2023-01-25T15:08:14;0.70;99.90
26703;DHT22;14316;51.074;3.704;2023-01-25T15:10:51;0.30;99.90
26703;DHT22;14316;51.074;3.704;2023-01-25T15:13:21;0.50;99.90
26703;DHT22;14316;51.074;3.704;2023-01-25T15:15:54;0.60;99.90
26703;DHT22;14316;51.074;3.704;2023-01-25T15:21:13;0.60;99.90
26703;DHT22;14316;51.074;3.704;2023-01-25T15:23:40;0.70;99.90
26703;DHT22;14316;51.074;3.704;2023-01-25T15:26:20;0.70;99.90
26703;DHT22;14316;51.074;3.704;2023-01-25T15:28:47;0.80;99.90
26703;DHT22;14316;51.074;3.704;2023-01-25T15:31:26;1.00;99.90
26703;DHT22;14316;51.074;3.704;2023-01-25T15:33:53;1.00;99.90
26703;DHT22;14316;51.074;3.704;2023-01-25T15:36:19;1.00;99.90
26703;DHT22;14316;51.074;3.704;2023-01-25T15:38:45;1.30;99.90
26703;DHT22;14316;51.074;3.704;2023-01-25T15:41:11;1.40;99.90
26703;DHT22;14316;51.074;3.704;2023-01-25T15:43:38;1.10;99.90
26703;DHT22;14316;51.074;3.704;2023-01-25T15:46:05;0.80;99.90
26703;DHT22;14316;51.074;3.704;2023-01-25T15:48:41;1.00;99.90
26703;DHT22;14316;51.074;3.704;2023-01-25T15:51:07;0.80;99.90
26703;DHT22;14316;51.074;3.704;2023-01-25T15:53:33;0.80;99.90
26703;DHT22;14316;51.074;3.704;2023-01-25T15:56:05;0.80;99.90
26703;DHT22;14316;51.074;3.704;2023-01-25T15:58:43;0.80;99.90
26703;DHT22;14316;51.074;3.704;2023-01-25T16:01:10;0.90;99.90
26703;DHT22;14316;51.074;3.704;2023-01-25T16:03:35;0.90;99.90
26703;DHT22;14316;51.074;3.704;2023-01-25T16:06:26;1.50;99.90
26703;DHT22;14316;51.074;3.704;2023-01-25T16:08:53;0.90;99.90
26703;DHT22;14316;51.074;3.704;2023-01-25T16:11:19;1.00;99.90
26703;DHT22;14316;51.074;3.704;2023-01-25T16:13:45;0.70;99.90
26703;DHT22;14316;51.074;3.704;2023-01-25T16:16:21;0.80;99.90
26703;DHT22;14316;51.074;3.704;2023-01-25T16:18:48;0.70;99.90
26703;DHT22;14316;51.074;3.704;2023-01-25T16:21:14;0.70;99.90
26703;DHT22;14316;51.074;3.704;2023-01-25T16:23:40;1.50;99.90
26703;DHT22;14316;51.074;3.704;2023-01-25T16:26:24;0.90;99.90
26703;DHT22;14316;51.074;3.704;2023-01-25T16:28:51;0.90;99.90
26703;DHT22;14316;51.074;3.704;2023-01-25T16:31:22;0.80;99.90
26703;DHT22;14316;51.074;3.704;2023-01-25T16:33:48;0.70;99.90
26703;DHT22;14316;51.074;3.704;2023-01-25T16:36:21;0.70;99.90
26703;DHT22;14316;51.074;3.704;2023-01-25T16:38:48;0.70;99.90
26703;DHT22;14316;51.074;3.704;2023-01-25T16:41:14;0.70;99.90
26703;DHT22;14316;51.074;3.704;2023-01-25T16:43:45;0.90;99.90
26703;DHT22;14316;51.074;3.704;2023-01-25T16:46:20;1.10;99.90
26703;DHT22;14316;51.074;3.704;2023-01-25T16:48:47;1.10;99.90
26703;DHT22;14316;51.074;3.704;2023-01-25T16:51:19;1.10;99.90
26703;DHT22;14316;51.074;3.704;2023-01-25T16:53:46;1.00;99.90
26703;DHT22;14316;51.074;3.704;2023-01-25T16:56:20;0.90;99.90
26703;DHT22;14316;51.074;3.704;2023-01-25T16:58:47;0.90;99.90
26703;DHT22;14316;51.074;3.704;2023-01-25T17:01:14;1.30;99.90
26703;DHT22;14316;51.074;3.704;2023-01-25T17:03:41;1.30;99.90
26703;DHT22;14316;51.074;3.704;2023-01-25T17:06:15;1.50;99.90
26703;DHT22;14316;51.074;3.704;2023-01-25T17:08:41;1.90;99.90
26703;DHT22;14316;51.074;3.704;2023-01-25T17:11:07;2.00;99.90
26703;DHT22;14316;51.074;3.704;2023-01-25T17:13:33;2.10;99.90
26703;DHT22;14316;51.074;3.704;2023-01-25T17:15:59;2.30;99.90
26703;DHT22;14316;51.074;3.704;2023-01-25T17:18:26;2.20;99.90
26703;DHT22;14316;51.074;3.704;2023-01-25T17:21:00;2.40;99.90
26703;DHT22;14316;51.074;3.704;2023-01-25T17:23:26;2.50;99.90
26703;DHT22;14316;51.074;3.704;2023-01-25T17:25:53;2.50;99.90
26703;DHT22;14316;51.074;3.704;2023-01-25T17:28:19;2.80;99.90
26703;DHT22;14316;51.074;3.704;2023-01-25T17:30:45;3.10;99.90
26703;DHT22;14316;51.074;3.704;2023-01-25T17:33:11;3.00;99.90
26703;DHT22;14316;51.074;3.704;2023-01-25T17:35:37;3.00;99.90
26703;DHT22;14316;51.074;3.704;2023-01-25T17:38:03;3.10;99.90
26703;DHT22;14316;51.074;3.704;2023-01-25T17:40:29;2.80;99.90
26703;DHT22;14316;51.074;3.704;2023-01-25T17:42:55;2.90;99.90
26703;DHT22;14316;51.074;3.704;2023-01-25T17:45:21;2.90;99.90
26703;DHT22;14316;51.074;3.704;2023-01-25T17:47:46;2.90;99.90
26703;DHT22;14316;51.074;3.704;2023-01-25T17:50:15;2.90;99.90